sensor_id;sensor_type;location;lat;lon;timestamp;temperature;humidity
75705;DHT22;64391;44.686;37.628;2022-11-14T00:00:56;11.10;85.65
75705;DHT22;64391;44.686;37.628;2022-11-14T00:02:16;11.05;85.96
75705;DHT22;64391;44.686;37.628;2022-11-14T00:03:36;11.07;85.51
75705;DHT22;64391;44.686;37.628;2022-11-14T00:04:56;11.03;85.09
75705;DHT22;64391;44.686;37.628;2022-11-14T00:06:16;11.00;85.46
75705;DHT22;64391;44.686;37.628;2022-11-14T00:07:36;10.98;85.61
75705;DHT22;64391;44.686;37.628;2022-11-14T00:08:56;10.93;85.66
75705;DHT22;64391;44.686;37.628;2022-11-14T00:10:16;10.86;85.87
75705;DHT22;64391;44.686;37.628;2022-11-14T00:11:36;10.82;85.85
75705;DHT22;64391;44.686;37.628;2022-11-14T00:12:56;10.79;86.26
75705;DHT22;64391;44.686;37.628;2022-11-14T00:14:16;10.73;86.07
75705;DHT22;64391;44.686;37.628;2022-11-14T00:15:36;10.69;86.09
75705;DHT22;64391;44.686;37.628;2022-11-14T00:16:56;10.64;86.57
75705;DHT22;64391;44.686;37.628;2022-11-14T00:18:17;10.59;86.64
75705;DHT22;64391;44.686;37.628;2022-11-14T00:19:37;10.54;86.68
75705;DHT22;64391;44.686;37.628;2022-11-14T00:20:56;10.50;86.99
75705;DHT22;64391;44.686;37.628;2022-11-14T00:22:16;10.46;86.99
75705;DHT22;64391;44.686;37.628;2022-11-14T00:23:36;10.45;87.12
75705;DHT22;64391;44.686;37.628;2022-11-14T00:24:56;10.42;86.93
75705;DHT22;64391;44.686;37.628;2022-11-14T00:26:16;10.39;87.17
75705;DHT22;64391;44.686;37.628;2022-11-14T00:27:36;10.37;87.32
75705;DHT22;64391;44.686;37.628;2022-11-14T00:28:56;10.35;87.27
75705;DHT22;64391;44.686;37.628;2022-11-14T00:30:16;10.35;87.29
75705;DHT22;64391;44.686;37.628;2022-11-14T00:31:36;10.33;87.35
75705;DHT22;64391;44.686;37.628;2022-11-14T00:32:55;10.34;87.14
75705;DHT22;64391;44.686;37.628;2022-11-14T00:34:15;10.36;87.48
75705;DHT22;64391;44.686;37.628;2022-11-14T00:35:35;10.34;87.48
75705;DHT22;64391;44.686;37.628;2022-11-14T00:36:55;10.36;87.51
75705;DHT22;64391;44.686;37.628;2022-11-14T00:38:15;10.36;87.21
75705;DHT22;64391;44.686;37.628;2022-11-14T00:39:35;10.34;87.22
75705;DHT22;64391;44.686;37.628;2022-11-14T00:40:55;10.34;87.25
75705;DHT22;64391;44.686;37.628;2022-11-14T00:42:15;10.34;87.31
75705;DHT22;64391;44.686;37.628;2022-11-14T00:43:35;10.33;87.48
75705;DHT22;64391;44.686;37.628;2022-11-14T00:44:54;10.31;87.35
75705;DHT22;64391;44.686;37.628;2022-11-14T00:46:14;10.36;87.19
75705;DHT22;64391;44.686;37.628;2022-11-14T00:47:35;10.41;86.45
75705;DHT22;64391;44.686;37.628;2022-11-14T00:48:54;10.43;86.51
75705;DHT22;64391;44.686;37.628;2022-11-14T00:50:17;10.46;85.69
75705;DHT22;64391;44.686;37.628;2022-11-14T00:51:37;10.51;85.30
75705;DHT22;64391;44.686;37.628;2022-11-14T00:52:57;10.53;85.14
75705;DHT22;64391;44.686;37.628;2022-11-14T00:54:17;10.57;84.66
75705;DHT22;64391;44.686;37.628;2022-11-14T00:55:36;10.63;84.52
75705;DHT22;64391;44.686;37.628;2022-11-14T00:56:56;10.64;84.27
75705;DHT22;64391;44.686;37.628;2022-11-14T00:58:16;10.65;84.31
75705;DHT22;64391;44.686;37.628;2022-11-14T00:59:36;10.64;84.75
75705;DHT22;64391;44.686;37.628;2022-11-14T01:00:56;10.62;84.55
75705;DHT22;64391;44.686;37.628;2022-11-14T01:02:16;10.63;84.19
75705;DHT22;64391;44.686;37.628;2022-11-14T01:03:36;10.63;83.85
75705;DHT22;64391;44.686;37.628;2022-11-14T01:04:56;10.62;84.60
75705;DHT22;64391;44.686;37.628;2022-11-14T01:06:17;10.60;84.83
75705;DHT22;64391;44.686;37.628;2022-11-14T01:07:37;10.59;84.94
75705;DHT22;64391;44.686;37.628;2022-11-14T01:08:57;10.60;85.29
75705;DHT22;64391;44.686;37.628;2022-11-14T01:10:17;10.60;85.32
75705;DHT22;64391;44.686;37.628;2022-11-14T01:11:37;10.56;84.60
75705;DHT22;64391;44.686;37.628;2022-11-14T01:12:57;10.56;84.95
75705;DHT22;64391;44.686;37.628;2022-11-14T01:14:17;10.56;85.15
75705;DHT22;64391;44.686;37.628;2022-11-14T01:15:42;10.56;85.03
75705;DHT22;64391;44.686;37.628;2022-11-14T01:17:02;10.55;84.64
75705;DHT22;64391;44.686;37.628;2022-11-14T01:18:21;10.50;84.11
75705;DHT22;64391;44.686;37.628;2022-11-14T01:19:41;10.52;84.24
75705;DHT22;64391;44.686;37.628;2022-11-14T01:21:07;10.52;84.39
75705;DHT22;64391;44.686;37.628;2022-11-14T01:22:28;10.50;84.34
75705;DHT22;64391;44.686;37.628;2022-11-14T01:23:49;10.44;84.40
75705;DHT22;64391;44.686;37.628;2022-11-14T01:25:08;10.37;84.24
75705;DHT22;64391;44.686;37.628;2022-11-14T01:26:28;10.29;84.79
75705;DHT22;64391;44.686;37.628;2022-11-14T01:27:49;10.24;84.64
75705;DHT22;64391;44.686;37.628;2022-11-14T01:29:09;10.18;84.93
75705;DHT22;64391;44.686;37.628;2022-11-14T01:30:29;10.15;85.06
75705;DHT22;64391;44.686;37.628;2022-11-14T01:31:49;10.11;85.04
75705;DHT22;64391;44.686;37.628;2022-11-14T01:33:09;10.05;85.16
75705;DHT22;64391;44.686;37.628;2022-11-14T01:34:29;9.98;85.49
75705;DHT22;64391;44.686;37.628;2022-11-14T01:35:49;9.93;85.69
75705;DHT22;64391;44.686;37.628;2022-11-14T01:37:09;9.91;85.80
75705;DHT22;64391;44.686;37.628;2022-11-14T01:38:29;9.88;86.03
75705;DHT22;64391;44.686;37.628;2022-11-14T01:39:49;9.90;86.13
75705;DHT22;64391;44.686;37.628;2022-11-14T01:41:12;9.89;86.13
75705;DHT22;64391;44.686;37.628;2022-11-14T01:42:32;9.90;85.95
75705;DHT22;64391;44.686;37.628;2022-11-14T01:43:52;9.92;85.90
75705;DHT22;64391;44.686;37.628;2022-11-14T01:47:24;9.86;85.58
75705;DHT22;64391;44.686;37.628;2022-11-14T01:48:51;9.89;85.59
75705;DHT22;64391;44.686;37.628;2022-11-14T01:50:12;9.91;85.74
75705;DHT22;64391;44.686;37.628;2022-11-14T01:51:36;9.90;85.50
75705;DHT22;64391;44.686;37.628;2022-11-14T01:52:58;9.91;85.33
75705;DHT22;64391;44.686;37.628;2022-11-14T01:54:22;9.84;85.76
75705;DHT22;64391;44.686;37.628;2022-11-14T01:55:42;9.77;85.36
75705;DHT22;64391;44.686;37.628;2022-11-14T01:57:04;9.79;85.50
75705;DHT22;64391;44.686;37.628;2022-11-14T01:58:26;9.81;84.75
75705;DHT22;64391;44.686;37.628;2022-11-14T01:59:51;9.80;85.08
75705;DHT22;64391;44.686;37.628;2022-11-14T02:01:12;9.79;85.17
75705;DHT22;64391;44.686;37.628;2022-11-14T02:02:32;9.79;85.20
75705;DHT22;64391;44.686;37.628;2022-11-14T02:03:53;9.76;85.27
75705;DHT22;64391;44.686;37.628;2022-11-14T02:05:15;9.75;85.26
75705;DHT22;64391;44.686;37.628;2022-11-14T02:06:37;9.71;85.35
75705;DHT22;64391;44.686;37.628;2022-11-14T02:07:57;9.68;85.23
75705;DHT22;64391;44.686;37.628;2022-11-14T02:09:17;9.65;85.24
75705;DHT22;64391;44.686;37.628;2022-11-14T02:10:37;9.62;85.13
75705;DHT22;64391;44.686;37.628;2022-11-14T02:11:58;9.60;85.43
75705;DHT22;64391;44.686;37.628;2022-11-14T02:13:19;9.59;85.47
75705;DHT22;64391;44.686;37.628;2022-11-14T02:14:41;9.52;85.35
75705;DHT22;64391;44.686;37.628;2022-11-14T02:16:05;9.38;85.87
75705;DHT22;64391;44.686;37.628;2022-11-14T02:17:25;9.34;85.87
75705;DHT22;64391;44.686;37.628;2022-11-14T02:18:45;9.23;86.35
75705;DHT22;64391;44.686;37.628;2022-11-14T02:21:31;9.09;86.93
75705;DHT22;64391;44.686;37.628;2022-11-14T02:22:51;8.92;86.90
75705;DHT22;64391;44.686;37.628;2022-11-14T02:24:11;8.83;87.26
75705;DHT22;64391;44.686;37.628;2022-11-14T02:25:31;8.80;87.38
75705;DHT22;64391;44.686;37.628;2022-11-14T02:26:51;8.74;87.57
75705;DHT22;64391;44.686;37.628;2022-11-14T02:28:11;8.67;87.41
75705;DHT22;64391;44.686;37.628;2022-11-14T02:29:32;8.57;87.22
75705;DHT22;64391;44.686;37.628;2022-11-14T02:30:53;8.51;87.51
75705;DHT22;64391;44.686;37.628;2022-11-14T02:32:13;8.45;86.76
75705;DHT22;64391;44.686;37.628;2022-11-14T02:33:33;8.36;87.21
75705;DHT22;64391;44.686;37.628;2022-11-14T02:34:53;8.34;87.01
75705;DHT22;64391;44.686;37.628;2022-11-14T02:36:13;8.35;87.27
75705;DHT22;64391;44.686;37.628;2022-11-14T02:37:33;8.36;86.77
75705;DHT22;64391;44.686;37.628;2022-11-14T02:38:53;8.29;87.07
75705;DHT22;64391;44.686;37.628;2022-11-14T02:40:12;8.16;87.06
75705;DHT22;64391;44.686;37.628;2022-11-14T02:41:32;8.06;87.23
75705;DHT22;64391;44.686;37.628;2022-11-14T02:42:53;8.00;88.06
75705;DHT22;64391;44.686;37.628;2022-11-14T02:44:12;7.93;88.12
75705;DHT22;64391;44.686;37.628;2022-11-14T02:45:32;7.92;88.10
75705;DHT22;64391;44.686;37.628;2022-11-14T02:46:52;7.83;88.29
75705;DHT22;64391;44.686;37.628;2022-11-14T02:48:12;7.78;88.32
75705;DHT22;64391;44.686;37.628;2022-11-14T02:49:32;7.72;88.12
75705;DHT22;64391;44.686;37.628;2022-11-14T02:50:52;7.69;88.48
75705;DHT22;64391;44.686;37.628;2022-11-14T02:52:12;7.65;88.28
75705;DHT22;64391;44.686;37.628;2022-11-14T02:53:31;7.58;88.38
75705;DHT22;64391;44.686;37.628;2022-11-14T02:54:51;7.55;88.51
75705;DHT22;64391;44.686;37.628;2022-11-14T02:56:11;7.53;88.76
75705;DHT22;64391;44.686;37.628;2022-11-14T02:57:31;7.47;88.73
75705;DHT22;64391;44.686;37.628;2022-11-14T02:58:51;7.44;88.86
75705;DHT22;64391;44.686;37.628;2022-11-14T03:00:12;7.39;88.98
75705;DHT22;64391;44.686;37.628;2022-11-14T03:01:32;7.33;89.15
75705;DHT22;64391;44.686;37.628;2022-11-14T03:02:52;7.30;89.28
75705;DHT22;64391;44.686;37.628;2022-11-14T03:04:12;7.31;89.07
75705;DHT22;64391;44.686;37.628;2022-11-14T03:05:32;7.34;89.21
75705;DHT22;64391;44.686;37.628;2022-11-14T03:06:52;7.33;89.21
75705;DHT22;64391;44.686;37.628;2022-11-14T03:08:12;7.30;89.11
75705;DHT22;64391;44.686;37.628;2022-11-14T03:09:32;7.23;89.23
75705;DHT22;64391;44.686;37.628;2022-11-14T03:10:52;7.17;89.12
75705;DHT22;64391;44.686;37.628;2022-11-14T03:12:16;7.10;89.38
75705;DHT22;64391;44.686;37.628;2022-11-14T03:13:37;7.03;90.01
75705;DHT22;64391;44.686;37.628;2022-11-14T03:14:57;6.99;90.03
75705;DHT22;64391;44.686;37.628;2022-11-14T03:16:17;6.97;90.14
75705;DHT22;64391;44.686;37.628;2022-11-14T03:17:37;6.95;89.78
75705;DHT22;64391;44.686;37.628;2022-11-14T03:18:57;6.88;89.06
75705;DHT22;64391;44.686;37.628;2022-11-14T03:20:17;6.87;89.09
75705;DHT22;64391;44.686;37.628;2022-11-14T03:21:37;6.87;88.72
75705;DHT22;64391;44.686;37.628;2022-11-14T03:22:57;6.85;88.32
75705;DHT22;64391;44.686;37.628;2022-11-14T03:24:17;6.78;88.54
75705;DHT22;64391;44.686;37.628;2022-11-14T03:25:37;6.72;88.68
75705;DHT22;64391;44.686;37.628;2022-11-14T03:26:57;6.66;89.25
75705;DHT22;64391;44.686;37.628;2022-11-14T03:28:17;6.59;89.08
75705;DHT22;64391;44.686;37.628;2022-11-14T03:29:37;6.56;89.20
75705;DHT22;64391;44.686;37.628;2022-11-14T03:30:57;6.54;89.48
75705;DHT22;64391;44.686;37.628;2022-11-14T03:32:17;6.56;89.21
75705;DHT22;64391;44.686;37.628;2022-11-14T03:33:38;6.61;88.95
75705;DHT22;64391;44.686;37.628;2022-11-14T03:34:58;6.65;89.07
75705;DHT22;64391;44.686;37.628;2022-11-14T03:36:18;6.64;88.83
75705;DHT22;64391;44.686;37.628;2022-11-14T03:37:38;6.68;88.71
75705;DHT22;64391;44.686;37.628;2022-11-14T03:38:58;6.70;88.47
75705;DHT22;64391;44.686;37.628;2022-11-14T03:40:18;6.72;88.68
75705;DHT22;64391;44.686;37.628;2022-11-14T03:41:38;6.78;87.80
75705;DHT22;64391;44.686;37.628;2022-11-14T03:42:58;6.83;88.46
75705;DHT22;64391;44.686;37.628;2022-11-14T03:44:18;6.83;88.41
75705;DHT22;64391;44.686;37.628;2022-11-14T03:45:38;6.82;88.38
75705;DHT22;64391;44.686;37.628;2022-11-14T03:46:58;6.78;88.76
75705;DHT22;64391;44.686;37.628;2022-11-14T03:48:18;6.78;88.12
75705;DHT22;64391;44.686;37.628;2022-11-14T03:49:38;6.67;88.67
75705;DHT22;64391;44.686;37.628;2022-11-14T03:50:58;6.59;88.96
75705;DHT22;64391;44.686;37.628;2022-11-14T03:52:17;6.56;88.76
75705;DHT22;64391;44.686;37.628;2022-11-14T03:53:37;6.59;89.16
75705;DHT22;64391;44.686;37.628;2022-11-14T03:54:57;6.53;89.01
75705;DHT22;64391;44.686;37.628;2022-11-14T03:56:17;6.40;88.69
75705;DHT22;64391;44.686;37.628;2022-11-14T03:57:37;6.30;89.06
75705;DHT22;64391;44.686;37.628;2022-11-14T03:58:57;6.31;88.98
75705;DHT22;64391;44.686;37.628;2022-11-14T04:00:17;6.30;89.28
75705;DHT22;64391;44.686;37.628;2022-11-14T04:01:37;6.30;89.47
75705;DHT22;64391;44.686;37.628;2022-11-14T04:02:57;6.23;89.73
75705;DHT22;64391;44.686;37.628;2022-11-14T04:04:17;6.20;90.50
75705;DHT22;64391;44.686;37.628;2022-11-14T04:05:37;6.13;90.72
75705;DHT22;64391;44.686;37.628;2022-11-14T04:06:57;6.07;90.97
75705;DHT22;64391;44.686;37.628;2022-11-14T04:08:17;6.01;90.55
75705;DHT22;64391;44.686;37.628;2022-11-14T04:09:37;5.92;90.68
75705;DHT22;64391;44.686;37.628;2022-11-14T04:10:57;5.89;91.06
75705;DHT22;64391;44.686;37.628;2022-11-14T04:12:17;5.84;90.98
75705;DHT22;64391;44.686;37.628;2022-11-14T04:13:37;5.83;91.59
75705;DHT22;64391;44.686;37.628;2022-11-14T04:14:57;5.91;92.34
75705;DHT22;64391;44.686;37.628;2022-11-14T04:16:17;5.95;91.92
75705;DHT22;64391;44.686;37.628;2022-11-14T04:17:37;6.01;92.16
75705;DHT22;64391;44.686;37.628;2022-11-14T04:18:57;6.06;92.43
75705;DHT22;64391;44.686;37.628;2022-11-14T04:20:17;6.07;92.47
75705;DHT22;64391;44.686;37.628;2022-11-14T04:21:37;6.14;92.03
75705;DHT22;64391;44.686;37.628;2022-11-14T04:22:57;6.20;92.29
75705;DHT22;64391;44.686;37.628;2022-11-14T04:24:17;6.24;91.67
75705;DHT22;64391;44.686;37.628;2022-11-14T04:25:37;6.31;91.40
75705;DHT22;64391;44.686;37.628;2022-11-14T04:26:57;6.39;91.15
75705;DHT22;64391;44.686;37.628;2022-11-14T04:28:17;6.40;90.89
75705;DHT22;64391;44.686;37.628;2022-11-14T04:29:37;6.45;90.86
75705;DHT22;64391;44.686;37.628;2022-11-14T04:30:57;6.51;91.13
75705;DHT22;64391;44.686;37.628;2022-11-14T04:32:16;6.59;90.76
75705;DHT22;64391;44.686;37.628;2022-11-14T04:33:36;6.63;90.89
75705;DHT22;64391;44.686;37.628;2022-11-14T04:34:57;6.66;91.02
75705;DHT22;64391;44.686;37.628;2022-11-14T04:36:17;6.68;90.89
75705;DHT22;64391;44.686;37.628;2022-11-14T04:37:37;6.72;90.66
75705;DHT22;64391;44.686;37.628;2022-11-14T04:38:57;6.74;90.55
75705;DHT22;64391;44.686;37.628;2022-11-14T04:40:17;6.74;90.39
75705;DHT22;64391;44.686;37.628;2022-11-14T04:41:37;6.73;90.45
75705;DHT22;64391;44.686;37.628;2022-11-14T04:42:57;6.78;90.69
75705;DHT22;64391;44.686;37.628;2022-11-14T04:44:17;6.78;90.60
75705;DHT22;64391;44.686;37.628;2022-11-14T04:45:37;6.73;90.93
75705;DHT22;64391;44.686;37.628;2022-11-14T04:46:57;6.69;91.29
75705;DHT22;64391;44.686;37.628;2022-11-14T04:48:17;6.67;91.87
75705;DHT22;64391;44.686;37.628;2022-11-14T04:49:36;6.68;92.08
75705;DHT22;64391;44.686;37.628;2022-11-14T04:50:56;6.67;91.86
75705;DHT22;64391;44.686;37.628;2022-11-14T04:52:16;6.67;92.24
75705;DHT22;64391;44.686;37.628;2022-11-14T04:53:36;6.71;92.65
75705;DHT22;64391;44.686;37.628;2022-11-14T04:54:56;6.78;92.80
75705;DHT22;64391;44.686;37.628;2022-11-14T04:56:16;6.85;92.76
75705;DHT22;64391;44.686;37.628;2022-11-14T04:57:36;6.90;92.85
75705;DHT22;64391;44.686;37.628;2022-11-14T04:58:56;6.96;92.79
75705;DHT22;64391;44.686;37.628;2022-11-14T05:00:16;6.98;92.85
75705;DHT22;64391;44.686;37.628;2022-11-14T05:01:37;7.02;92.72
75705;DHT22;64391;44.686;37.628;2022-11-14T05:02:59;7.05;92.74
75705;DHT22;64391;44.686;37.628;2022-11-14T05:04:19;7.10;92.94
75705;DHT22;64391;44.686;37.628;2022-11-14T05:05:39;7.14;92.74
75705;DHT22;64391;44.686;37.628;2022-11-14T05:06:59;7.17;92.98
75705;DHT22;64391;44.686;37.628;2022-11-14T05:08:19;7.20;92.92
75705;DHT22;64391;44.686;37.628;2022-11-14T05:09:39;7.23;92.99
75705;DHT22;64391;44.686;37.628;2022-11-14T05:10:59;7.26;92.98
75705;DHT22;64391;44.686;37.628;2022-11-14T05:12:18;7.28;92.87
75705;DHT22;64391;44.686;37.628;2022-11-14T05:13:38;7.29;92.92
75705;DHT22;64391;44.686;37.628;2022-11-14T05:14:58;7.32;92.63
75705;DHT22;64391;44.686;37.628;2022-11-14T05:16:18;7.37;92.51
75705;DHT22;64391;44.686;37.628;2022-11-14T05:17:38;7.40;92.56
75705;DHT22;64391;44.686;37.628;2022-11-14T05:18:58;7.45;92.52
75705;DHT22;64391;44.686;37.628;2022-11-14T05:20:18;7.52;92.50
75705;DHT22;64391;44.686;37.628;2022-11-14T05:21:38;7.57;92.41
75705;DHT22;64391;44.686;37.628;2022-11-14T05:22:58;7.64;92.26
75705;DHT22;64391;44.686;37.628;2022-11-14T05:24:17;7.69;92.00
75705;DHT22;64391;44.686;37.628;2022-11-14T05:25:38;7.81;91.98
75705;DHT22;64391;44.686;37.628;2022-11-14T05:26:58;7.90;91.96
75705;DHT22;64391;44.686;37.628;2022-11-14T05:28:18;8.02;91.79
75705;DHT22;64391;44.686;37.628;2022-11-14T05:29:38;8.13;91.43
75705;DHT22;64391;44.686;37.628;2022-11-14T05:31:06;8.21;91.41
75705;DHT22;64391;44.686;37.628;2022-11-14T05:32:26;8.30;91.30
75705;DHT22;64391;44.686;37.628;2022-11-14T05:33:46;8.39;90.92
75705;DHT22;64391;44.686;37.628;2022-11-14T05:35:08;8.48;90.61
75705;DHT22;64391;44.686;37.628;2022-11-14T05:36:28;8.56;90.25
75705;DHT22;64391;44.686;37.628;2022-11-14T05:37:48;8.64;90.39
75705;DHT22;64391;44.686;37.628;2022-11-14T05:39:08;8.74;90.53
75705;DHT22;64391;44.686;37.628;2022-11-14T05:40:28;8.85;89.40
75705;DHT22;64391;44.686;37.628;2022-11-14T05:41:48;8.93;89.62
75705;DHT22;64391;44.686;37.628;2022-11-14T05:43:07;9.03;89.47
75705;DHT22;64391;44.686;37.628;2022-11-14T05:44:27;9.12;89.38
75705;DHT22;64391;44.686;37.628;2022-11-14T05:45:47;9.21;89.13
75705;DHT22;64391;44.686;37.628;2022-11-14T05:47:07;9.35;89.71
75705;DHT22;64391;44.686;37.628;2022-11-14T05:48:28;9.45;89.08
75705;DHT22;64391;44.686;37.628;2022-11-14T05:49:48;9.57;89.31
75705;DHT22;64391;44.686;37.628;2022-11-14T05:51:10;9.67;89.40
75705;DHT22;64391;44.686;37.628;2022-11-14T05:52:31;9.79;88.67
75705;DHT22;64391;44.686;37.628;2022-11-14T05:53:51;9.92;88.45
75705;DHT22;64391;44.686;37.628;2022-11-14T05:55:11;10.00;88.01
75705;DHT22;64391;44.686;37.628;2022-11-14T05:56:31;10.09;87.46
75705;DHT22;64391;44.686;37.628;2022-11-14T05:57:51;10.16;87.72
75705;DHT22;64391;44.686;37.628;2022-11-14T05:59:10;10.23;87.55
75705;DHT22;64391;44.686;37.628;2022-11-14T06:00:30;10.29;86.85
75705;DHT22;64391;44.686;37.628;2022-11-14T06:01:50;10.35;87.12
75705;DHT22;64391;44.686;37.628;2022-11-14T06:03:10;10.36;86.96
75705;DHT22;64391;44.686;37.628;2022-11-14T06:04:30;10.40;87.10
75705;DHT22;64391;44.686;37.628;2022-11-14T06:05:50;10.46;86.14
75705;DHT22;64391;44.686;37.628;2022-11-14T06:07:10;10.52;86.07
75705;DHT22;64391;44.686;37.628;2022-11-14T06:08:31;10.57;85.96
75705;DHT22;64391;44.686;37.628;2022-11-14T06:09:51;10.65;85.86
75705;DHT22;64391;44.686;37.628;2022-11-14T06:11:17;10.69;86.05
75705;DHT22;64391;44.686;37.628;2022-11-14T06:12:37;10.78;86.38
75705;DHT22;64391;44.686;37.628;2022-11-14T06:13:57;10.92;85.87
75705;DHT22;64391;44.686;37.628;2022-11-14T06:15:17;11.03;84.97
75705;DHT22;64391;44.686;37.628;2022-11-14T06:16:37;11.17;85.08
75705;DHT22;64391;44.686;37.628;2022-11-14T06:17:57;11.31;83.30
75705;DHT22;64391;44.686;37.628;2022-11-14T06:19:17;11.43;81.92
75705;DHT22;64391;44.686;37.628;2022-11-14T06:20:37;11.48;81.93
75705;DHT22;64391;44.686;37.628;2022-11-14T06:21:57;11.57;82.11
75705;DHT22;64391;44.686;37.628;2022-11-14T06:23:16;11.62;81.33
75705;DHT22;64391;44.686;37.628;2022-11-14T06:24:36;11.67;80.21
75705;DHT22;64391;44.686;37.628;2022-11-14T06:25:58;11.70;80.77
75705;DHT22;64391;44.686;37.628;2022-11-14T06:27:18;11.72;81.26
75705;DHT22;64391;44.686;37.628;2022-11-14T06:28:39;11.77;79.75
75705;DHT22;64391;44.686;37.628;2022-11-14T06:29:58;11.82;78.95
75705;DHT22;64391;44.686;37.628;2022-11-14T06:31:19;11.88;79.72
75705;DHT22;64391;44.686;37.628;2022-11-14T06:32:40;11.98;79.43
75705;DHT22;64391;44.686;37.628;2022-11-14T06:33:59;12.10;78.96
75705;DHT22;64391;44.686;37.628;2022-11-14T06:35:19;12.19;78.07
75705;DHT22;64391;44.686;37.628;2022-11-14T06:36:39;12.29;77.43
75705;DHT22;64391;44.686;37.628;2022-11-14T06:37:59;12.40;76.57
75705;DHT22;64391;44.686;37.628;2022-11-14T06:39:19;12.44;75.24
75705;DHT22;64391;44.686;37.628;2022-11-14T06:40:39;12.53;76.58
75705;DHT22;64391;44.686;37.628;2022-11-14T06:41:59;12.61;76.35
75705;DHT22;64391;44.686;37.628;2022-11-14T06:43:19;12.62;75.39
75705;DHT22;64391;44.686;37.628;2022-11-14T06:44:39;12.66;75.34
75705;DHT22;64391;44.686;37.628;2022-11-14T06:45:59;12.73;74.51
75705;DHT22;64391;44.686;37.628;2022-11-14T06:47:19;12.74;75.11
75705;DHT22;64391;44.686;37.628;2022-11-14T06:48:40;12.71;73.00
75705;DHT22;64391;44.686;37.628;2022-11-14T06:50:00;12.69;73.08
75705;DHT22;64391;44.686;37.628;2022-11-14T06:51:20;12.74;74.15
75705;DHT22;64391;44.686;37.628;2022-11-14T06:52:40;12.79;73.90
75705;DHT22;64391;44.686;37.628;2022-11-14T06:54:00;12.80;74.49
75705;DHT22;64391;44.686;37.628;2022-11-14T06:55:20;12.84;75.09
75705;DHT22;64391;44.686;37.628;2022-11-14T06:56:40;12.96;75.02
75705;DHT22;64391;44.686;37.628;2022-11-14T06:58:00;13.05;74.97
75705;DHT22;64391;44.686;37.628;2022-11-14T06:59:19;13.07;74.15
75705;DHT22;64391;44.686;37.628;2022-11-14T07:00:39;13.15;73.09
75705;DHT22;64391;44.686;37.628;2022-11-14T07:01:59;13.17;73.59
75705;DHT22;64391;44.686;37.628;2022-11-14T07:03:19;13.19;73.59
75705;DHT22;64391;44.686;37.628;2022-11-14T07:04:40;13.18;73.76
75705;DHT22;64391;44.686;37.628;2022-11-14T07:06:00;13.22;73.51
75705;DHT22;64391;44.686;37.628;2022-11-14T07:07:21;13.22;72.48
75705;DHT22;64391;44.686;37.628;2022-11-14T07:08:41;13.24;73.07
75705;DHT22;64391;44.686;37.628;2022-11-14T07:10:01;13.25;73.01
75705;DHT22;64391;44.686;37.628;2022-11-14T07:11:23;13.27;73.23
75705;DHT22;64391;44.686;37.628;2022-11-14T07:12:45;13.30;73.12
75705;DHT22;64391;44.686;37.628;2022-11-14T07:14:05;13.33;73.41
75705;DHT22;64391;44.686;37.628;2022-11-14T07:15:25;13.32;71.66
75705;DHT22;64391;44.686;37.628;2022-11-14T07:16:45;13.27;72.36
75705;DHT22;64391;44.686;37.628;2022-11-14T07:18:06;13.30;72.90
75705;DHT22;64391;44.686;37.628;2022-11-14T07:19:26;13.29;72.67
75705;DHT22;64391;44.686;37.628;2022-11-14T07:20:46;13.29;71.77
75705;DHT22;64391;44.686;37.628;2022-11-14T07:22:06;13.24;69.90
75705;DHT22;64391;44.686;37.628;2022-11-14T07:23:27;13.29;72.06
75705;DHT22;64391;44.686;37.628;2022-11-14T07:24:47;13.29;72.02
75705;DHT22;64391;44.686;37.628;2022-11-14T07:26:09;13.31;70.73
75705;DHT22;64391;44.686;37.628;2022-11-14T07:27:30;13.30;70.64
75705;DHT22;64391;44.686;37.628;2022-11-14T07:28:49;13.41;75.54
75705;DHT22;64391;44.686;37.628;2022-11-14T07:30:10;13.48;71.95
75705;DHT22;64391;44.686;37.628;2022-11-14T07:31:29;13.59;69.61
75705;DHT22;64391;44.686;37.628;2022-11-14T07:32:56;13.63;69.49
75705;DHT22;64391;44.686;37.628;2022-11-14T07:34:16;13.64;69.61
75705;DHT22;64391;44.686;37.628;2022-11-14T07:35:40;13.67;70.39
75705;DHT22;64391;44.686;37.628;2022-11-14T07:37:00;13.75;71.96
75705;DHT22;64391;44.686;37.628;2022-11-14T07:38:20;13.83;70.45
75705;DHT22;64391;44.686;37.628;2022-11-14T07:39:40;13.95;71.71
75705;DHT22;64391;44.686;37.628;2022-11-14T07:41:05;13.94;69.13
75705;DHT22;64391;44.686;37.628;2022-11-14T07:42:28;14.03;67.30
75705;DHT22;64391;44.686;37.628;2022-11-14T07:43:48;13.97;66.33
75705;DHT22;64391;44.686;37.628;2022-11-14T07:45:09;14.01;68.65
75705;DHT22;64391;44.686;37.628;2022-11-14T07:46:29;13.76;67.75
75705;DHT22;64391;44.686;37.628;2022-11-14T07:47:55;13.80;69.26
75705;DHT22;64391;44.686;37.628;2022-11-14T07:49:15;13.82;68.11
75705;DHT22;64391;44.686;37.628;2022-11-14T07:50:35;13.86;68.98
75705;DHT22;64391;44.686;37.628;2022-11-14T07:51:55;13.88;68.77
75705;DHT22;64391;44.686;37.628;2022-11-14T07:53:15;13.88;69.55
75705;DHT22;64391;44.686;37.628;2022-11-14T07:54:36;13.92;70.30
75705;DHT22;64391;44.686;37.628;2022-11-14T07:56:02;14.01;68.45
75705;DHT22;64391;44.686;37.628;2022-11-14T07:57:23;14.12;68.15
75705;DHT22;64391;44.686;37.628;2022-11-14T07:58:43;14.09;66.80
75705;DHT22;64391;44.686;37.628;2022-11-14T08:00:03;13.99;66.93
75705;DHT22;64391;44.686;37.628;2022-11-14T08:01:23;14.13;67.59
75705;DHT22;64391;44.686;37.628;2022-11-14T08:02:45;14.24;67.43
75705;DHT22;64391;44.686;37.628;2022-11-14T08:04:05;14.22;66.69
75705;DHT22;64391;44.686;37.628;2022-11-14T08:05:25;14.22;65.14
75705;DHT22;64391;44.686;37.628;2022-11-14T08:06:45;14.22;64.92
75705;DHT22;64391;44.686;37.628;2022-11-14T08:08:05;14.10;65.02
75705;DHT22;64391;44.686;37.628;2022-11-14T08:09:25;14.24;67.84
75705;DHT22;64391;44.686;37.628;2022-11-14T08:10:45;14.34;65.56
75705;DHT22;64391;44.686;37.628;2022-11-14T08:12:05;14.42;64.11
75705;DHT22;64391;44.686;37.628;2022-11-14T08:13:25;14.27;64.59
75705;DHT22;64391;44.686;37.628;2022-11-14T08:14:45;14.35;64.88
75705;DHT22;64391;44.686;37.628;2022-11-14T08:16:07;14.40;64.40
75705;DHT22;64391;44.686;37.628;2022-11-14T08:17:28;14.41;65.38
75705;DHT22;64391;44.686;37.628;2022-11-14T08:18:48;14.49;65.67
75705;DHT22;64391;44.686;37.628;2022-11-14T08:20:08;14.45;65.93
75705;DHT22;64391;44.686;37.628;2022-11-14T08:21:28;14.45;66.83
75705;DHT22;64391;44.686;37.628;2022-11-14T08:22:48;14.40;66.38
75705;DHT22;64391;44.686;37.628;2022-11-14T08:24:08;14.41;67.34
75705;DHT22;64391;44.686;37.628;2022-11-14T08:25:29;14.42;66.11
75705;DHT22;64391;44.686;37.628;2022-11-14T08:26:49;14.42;67.53